Time,TemperatureF,DewpointF,PressureIn,WindDirection,WindDirectionDegrees,WindSpeedMPH,WindSpeedGustMPH,Humidity,HourlyPrecipIn,Conditions,Clouds,dailyrainin,SoftwareType,DateUTC
2013-04-20 00:02:00,39.0,28.0,-100.00,SW,220,17.0,22.0,64,-99.99,,,-99.99,,2013-04-20 06:02:00,
2013-04-20 00:12:00,38.0,28.0,-100.00,SW,225,17.0,23.0,66,-99.99,,,-99.99,,2013-04-20 06:12:00,
2013-04-20 00:21:00,38.0,28.0,-100.00,SW,235,16.0,22.0,68,-99.99,,,-99.99,,2013-04-20 06:21:00,
2013-04-20 00:32:00,38.0,28.0,-100.00,SW,235,16.0,22.0,68,-99.99,,,-99.99,,2013-04-20 06:32:00,
2013-04-20 00:42:00,37.0,29.0,-100.00,WSW,240,16.0,22.0,70,-99.99,,,-99.99,,2013-04-20 06:42:00,
2013-04-20 00:52:00,37.0,29.0,-100.00,WSW,240,16.0,22.0,70,-99.99,,,-99.99,,2013-04-20 06:52:00,
2013-04-20 01:01:00,37.0,29.0,-100.00,WSW,240,16.0,22.0,70,-99.99,,,-99.99,,2013-04-20 07:01:00,
2013-04-20 01:11:00,37.0,29.0,-100.00,WSW,240,16.0,22.0,70,-99.99,,,-99.99,,2013-04-20 07:11:00,
2013-04-20 02:11:00,37.0,28.0,-100.00,WSW,240,21.0,24.0,69,-99.99,,,-99.99,,2013-04-20 08:11:00,
2013-04-20 02:21:00,37.0,28.0,-100.00,WSW,240,18.0,22.0,70,-99.99,,,-99.99,,2013-04-20 08:21:00,
2013-04-20 02:32:00,37.0,28.0,-100.00,WSW,245,17.0,23.0,71,-99.99,,,-99.99,,2013-04-20 08:32:00,
2013-04-20 02:42:00,36.0,28.0,-100.00,WSW,250,15.0,19.0,72,-99.99,,,-99.99,,2013-04-20 08:42:00,
2013-04-20 02:52:00,36.0,28.0,-100.00,WSW,255,14.0,19.0,73,-99.99,,,-99.99,,2013-04-20 08:52:00,
2013-04-20 03:01:00,35.0,28.0,-100.00,West,260,14.0,17.0,74,-99.99,,,-99.99,,2013-04-20 09:01:00,
2013-04-20 03:12:00,35.0,28.0,-100.00,West,265,12.0,16.0,75,-99.99,,,-99.99,,2013-04-20 09:12:00,
2013-04-20 03:21:00,34.0,28.0,-100.00,West,265,12.0,16.0,77,-99.99,,,-99.99,,2013-04-20 09:21:00,
2013-04-20 03:33:00,34.0,28.0,-100.00,West,270,13.0,16.0,78,-99.99,,,-99.99,,2013-04-20 09:33:00,
2013-04-20 03:43:00,34.0,28.0,-100.00,West,275,12.0,17.0,78,-99.99,,,-99.99,,2013-04-20 09:43:00,
2013-04-20 03:53:00,33.0,28.0,-100.00,West,280,11.0,16.0,79,-99.99,,,-99.99,,2013-04-20 09:53:00,
2013-04-20 04:03:00,33.0,28.0,-100.00,West,280,11.0,14.0,80,-99.99,,,-99.99,,2013-04-20 10:03:00,
2013-04-20 04:13:00,33.0,28.0,-100.00,West,280,11.0,14.0,80,-99.99,,,-99.99,,2013-04-20 10:13:00,
2013-04-20 04:23:00,33.0,28.0,-100.00,WNW,290,9.0,13.0,82,-99.99,,,-99.99,,2013-04-20 10:23:00,
2013-04-20 04:33:00,32.0,28.0,-100.00,WNW,295,6.0,10.0,83,-99.99,,,-99.99,,2013-04-20 10:33:00,
2013-04-20 04:42:00,32.0,28.0,-100.00,WNW,295,6.0,10.0,83,-99.99,,,-99.99,,2013-04-20 10:42:00,
2013-04-20 04:52:00,31.0,28.0,-100.00,WNW,300,4.0,7.0,85,-99.99,,,-99.99,,2013-04-20 10:52:00,
2013-04-20 05:02:00,31.0,27.0,-100.00,NW,305,4.0,6.0,85,-99.99,,,-99.99,,2013-04-20 11:02:00,
2013-04-20 05:12:00,31.0,27.0,-100.00,NW,305,2.0,4.0,86,-99.99,,,-99.99,,2013-04-20 11:12:00,
2013-04-20 05:23:00,30.0,27.0,-100.00,NW,310,3.0,4.0,87,-99.99,,,-99.99,,2013-04-20 11:23:00,
2013-04-20 05:32:00,30.0,27.0,-100.00,NW,310,3.0,4.0,87,-99.99,,,-99.99,,2013-04-20 11:32:00,
2013-04-20 05:42:00,30.0,27.0,-100.00,NW,310,3.0,4.0,87,-99.99,,,-99.99,,2013-04-20 11:42:00,
2013-04-20 05:52:00,30.0,27.0,-100.00,NW,310,3.0,4.0,87,-99.99,,,-99.99,,2013-04-20 11:52:00,
2013-04-20 06:11:00,30.0,27.0,-100.00,NW,325,8.0,9.0,90,-99.99,,,-99.99,,2013-04-20 12:11:00,
2013-04-20 06:22:00,30.0,27.0,-100.00,NW,325,8.0,9.0,90,-99.99,,,-99.99,,2013-04-20 12:22:00,
2013-04-20 06:32:00,30.0,27.0,-100.00,NW,325,8.0,9.0,90,-99.99,,,-99.99,,2013-04-20 12:32:00,
2013-04-20 06:42:00,30.0,27.0,-100.00,NW,325,8.0,9.0,90,-99.99,,,-99.99,,2013-04-20 12:42:00,
2013-04-20 06:52:00,29.0,28.0,-100.00,NNW,330,7.0,10.0,92,-99.99,,,-99.99,,2013-04-20 12:52:00,
2013-04-20 07:02:00,30.0,28.0,-100.00,NNW,330,7.0,10.0,92,-99.99,,,-99.99,,2013-04-20 13:02:00,
2013-04-20 07:11:00,31.0,29.0,-100.00,NNW,330,8.0,10.0,92,-99.99,,,-99.99,,2013-04-20 13:11:00,
2013-04-20 07:21:00,32.0,30.0,-100.00,NW,320,9.0,11.0,90,-99.99,,,-99.99,,2013-04-20 13:21:00,
2013-04-20 07:32:00,32.0,30.0,-100.00,NW,320,9.0,11.0,90,-99.99,,,-99.99,,2013-04-20 13:32:00,
2013-04-20 07:42:00,34.0,30.0,-100.00,NW,310,8.0,12.0,87,-99.99,,,-99.99,,2013-04-20 13:42:00,
2013-04-20 07:52:00,34.0,30.0,-100.00,NW,310,8.0,12.0,87,-99.99,,,-99.99,,2013-04-20 13:52:00,
2013-04-20 08:02:00,34.0,30.0,-100.00,NW,310,8.0,12.0,87,-99.99,,,-99.99,,2013-04-20 14:02:00,
2013-04-20 08:11:00,34.0,30.0,-100.00,NW,310,8.0,12.0,87,-99.99,,,-99.99,,2013-04-20 14:11:00,
2013-04-20 08:21:00,35.0,30.0,-100.00,WNW,295,9.0,11.0,83,-99.99,,,-99.99,,2013-04-20 14:21:00,
2013-04-20 08:32:00,35.0,30.0,-100.00,WNW,290,9.0,11.0,82,-99.99,,,-99.99,,2013-04-20 14:32:00,
2013-04-20 08:42:00,35.0,30.0,-100.00,WNW,290,9.0,11.0,82,-99.99,,,-99.99,,2013-04-20 14:42:00,
2013-04-20 08:51:00,37.0,31.0,-100.00,West,270,7.0,11.0,77,-99.99,,,-99.99,,2013-04-20 14:51:00,
2013-04-20 09:01:00,37.0,31.0,-100.00,West,270,7.0,11.0,77,-99.99,,,-99.99,,2013-04-20 15:01:00,
2013-04-20 09:11:00,37.0,31.0,-100.00,West,270,7.0,11.0,77,-99.99,,,-99.99,,2013-04-20 15:11:00,
2013-04-20 09:21:00,37.0,31.0,-100.00,West,270,7.0,11.0,77,-99.99,,,-99.99,,2013-04-20 15:21:00,
2013-04-20 09:43:00,41.0,30.0,-100.00,SW,215,6.0,12.0,63,-99.99,,,-99.99,,2013-04-20 15:43:00,
2013-04-20 09:53:00,41.0,30.0,-100.00,SW,215,6.0,12.0,63,-99.99,,,-99.99,,2013-04-20 15:53:00,
2013-04-20 10:03:00,43.0,30.0,-100.00,SSW,200,10.0,14.0,59,-99.99,,,-99.99,,2013-04-20 16:03:00,
2013-04-20 10:12:00,43.0,30.0,-100.00,SSW,200,10.0,14.0,59,-99.99,,,-99.99,,2013-04-20 16:12:00,
2013-04-20 10:23:00,43.0,30.0,-100.00,SSW,200,10.0,14.0,59,-99.99,,,-99.99,,2013-04-20 16:23:00,
2013-04-20 10:32:00,43.0,30.0,-100.00,SSW,200,10.0,14.0,59,-99.99,,,-99.99,,2013-04-20 16:32:00,
2013-04-20 10:53:00,46.0,29.0,-100.00,South,170,9.0,13.0,52,-99.99,,,-99.99,,2013-04-20 16:53:00,
2013-04-20 11:02:00,46.0,29.0,-100.00,South,170,9.0,13.0,52,-99.99,,,-99.99,,2013-04-20 17:02:00,
2013-04-20 11:12:00,46.0,29.0,-100.00,South,170,9.0,13.0,52,-99.99,,,-99.99,,2013-04-20 17:12:00,
2013-04-20 11:23:00,47.0,29.0,-100.00,SSE,155,7.0,14.0,49,-99.99,,,-99.99,,2013-04-20 17:23:00,
2013-04-20 11:33:00,47.0,29.0,-100.00,SSE,155,7.0,14.0,49,-99.99,,,-99.99,,2013-04-20 17:33:00,
2013-04-20 11:42:00,47.0,29.0,-100.00,SSE,155,7.0,14.0,49,-99.99,,,-99.99,,2013-04-20 17:42:00,
2013-04-20 11:52:00,47.0,29.0,-100.00,SSE,155,7.0,14.0,49,-99.99,,,-99.99,,2013-04-20 17:52:00,
2013-04-20 12:42:00,51.0,28.0,-100.00,ESE,120,11.0,19.0,39,-99.99,,,-99.99,,2013-04-20 18:42:00,
2013-04-20 12:52:00,51.0,28.0,-100.00,ESE,120,11.0,19.0,39,-99.99,,,-99.99,,2013-04-20 18:52:00,
2013-04-20 13:02:00,51.0,28.0,-100.00,ESE,120,11.0,19.0,39,-99.99,,,-99.99,,2013-04-20 19:02:00,
2013-04-20 13:11:00,53.0,27.0,-100.00,ESE,110,8.0,15.0,37,-99.99,,,-99.99,,2013-04-20 19:11:00,
2013-04-20 13:21:00,53.0,27.0,-100.00,ESE,110,8.0,15.0,37,-99.99,,,-99.99,,2013-04-20 19:21:00,
2013-04-20 13:32:00,53.0,26.0,-100.00,ESE,105,6.0,16.0,35,-99.99,,,-99.99,,2013-04-20 19:32:00,
2013-04-20 13:42:00,54.0,27.0,-100.00,East,100,7.0,12.0,35,-99.99,,,-99.99,,2013-04-20 19:42:00,
2013-04-20 13:52:00,54.0,27.0,-100.00,East,100,7.0,12.0,35,-99.99,,,-99.99,,2013-04-20 19:52:00,
2013-04-20 14:02:00,54.0,27.0,-100.00,East,100,7.0,12.0,35,-99.99,,,-99.99,,2013-04-20 20:02:00,
2013-04-20 14:12:00,54.0,27.0,-100.00,East,100,7.0,12.0,35,-99.99,,,-99.99,,2013-04-20 20:12:00,
2013-04-20 15:33:00,58.0,26.0,-100.00,ENE,75,6.0,9.0,28,-99.99,,,-99.99,,2013-04-20 21:33:00,
2013-04-20 15:43:00,58.0,26.0,-100.00,ENE,75,6.0,9.0,28,-99.99,,,-99.99,,2013-04-20 21:43:00,
2013-04-20 15:53:00,58.0,26.0,-100.00,ENE,75,6.0,9.0,28,-99.99,,,-99.99,,2013-04-20 21:53:00,
2013-04-20 16:02:00,58.0,26.0,-100.00,ENE,75,6.0,9.0,28,-99.99,,,-99.99,,2013-04-20 22:02:00,
2013-04-20 16:53:00,58.0,26.0,-100.00,ENE,75,12.0,16.0,28,-99.99,,,-99.99,,2013-04-20 22:53:00,
2013-04-20 17:02:00,58.0,26.0,-100.00,ENE,75,12.0,16.0,28,-99.99,,,-99.99,,2013-04-20 23:02:00,
2013-04-20 17:11:00,58.0,26.0,-100.00,ENE,75,12.0,16.0,28,-99.99,,,-99.99,,2013-04-20 23:11:00,
2013-04-20 17:22:00,58.0,26.0,-100.00,ENE,75,12.0,16.0,28,-99.99,,,-99.99,,2013-04-20 23:22:00,
2013-04-20 18:01:00,57.0,26.0,-100.00,East,80,11.0,20.0,30,-99.99,,,-99.99,,2013-04-21 00:01:00,
2013-04-20 18:12:00,56.0,26.0,-100.00,East,80,13.0,21.0,30,-99.99,,,-99.99,,2013-04-21 00:12:00,
2013-04-20 18:22:00,56.0,26.0,-100.00,East,85,14.0,18.0,30,-99.99,,,-99.99,,2013-04-21 00:22:00,
2013-04-20 18:32:00,56.0,26.0,-100.00,East,85,12.0,19.0,31,-99.99,,,-99.99,,2013-04-21 00:32:00,
2013-04-20 18:42:00,55.0,25.0,-100.00,East,85,12.0,17.0,31,-99.99,,,-99.99,,2013-04-21 00:42:00,
2013-04-20 18:52:00,55.0,25.0,-100.00,East,85,12.0,17.0,31,-99.99,,,-99.99,,2013-04-21 00:52:00,
2013-04-20 19:01:00,55.0,25.0,-100.00,East,85,12.0,17.0,31,-99.99,,,-99.99,,2013-04-21 01:01:00,
2013-04-20 19:12:00,55.0,25.0,-100.00,East,85,12.0,17.0,31,-99.99,,,-99.99,,2013-04-21 01:12:00,
2013-04-20 20:42:00,47.0,27.0,-100.00,SE,145,9.0,12.0,46,-99.99,,,-99.99,,2013-04-21 02:42:00,
2013-04-20 20:52:00,47.0,27.0,-100.00,SE,145,9.0,12.0,46,-99.99,,,-99.99,,2013-04-21 02:52:00,
2013-04-20 21:01:00,46.0,28.0,-100.00,SSE,155,9.0,11.0,48,-99.99,,,-99.99,,2013-04-21 03:01:00,
2013-04-20 21:11:00,47.0,29.0,-100.00,SSE,155,9.0,11.0,49,-99.99,,,-99.99,,2013-04-21 03:11:00,
2013-04-20 21:21:00,47.0,29.0,-100.00,SSE,160,10.0,12.0,49,-99.99,,,-99.99,,2013-04-21 03:21:00,
2013-04-20 21:33:00,47.0,29.0,-100.00,SSE,160,9.0,11.0,50,-99.99,,,-99.99,,2013-04-21 03:33:00,
2013-04-20 21:42:00,47.0,29.0,-100.00,SSE,165,10.0,12.0,50,-99.99,,,-99.99,,2013-04-21 03:42:00,
2013-04-20 21:52:00,47.0,30.0,-100.00,SSE,165,12.0,14.0,51,-99.99,,,-99.99,,2013-04-21 03:52:00,
2013-04-20 22:02:00,46.0,30.0,-100.00,South,170,14.0,17.0,52,-99.99,,,-99.99,,2013-04-21 04:02:00,
2013-04-20 22:12:00,46.0,30.0,-100.00,South,175,14.0,19.0,54,-99.99,,,-99.99,,2013-04-21 04:12:00,
2013-04-20 22:23:00,45.0,31.0,-100.00,South,185,14.0,18.0,57,-99.99,,,-99.99,,2013-04-21 04:23:00,
2013-04-20 22:33:00,44.0,31.0,-100.00,SSW,200,14.0,21.0,59,-99.99,,,-99.99,,2013-04-21 04:33:00,
2013-04-20 22:42:00,44.0,32.0,-100.00,SSW,210,12.0,16.0,62,-99.99,,,-99.99,,2013-04-21 04:42:00,
2013-04-20 22:52:00,43.0,32.0,-100.00,SW,220,12.0,16.0,65,-99.99,,,-99.99,,2013-04-21 04:52:00,
2013-04-20 23:02:00,43.0,33.0,-100.00,SW,230,12.0,17.0,68,-99.99,,,-99.99,,2013-04-21 05:02:00,
2013-04-20 23:12:00,42.0,33.0,-100.00,WSW,240,14.0,16.0,69,-99.99,,,-99.99,,2013-04-21 05:12:00,
2013-04-20 23:22:00,42.0,33.0,-100.00,WSW,245,12.0,16.0,71,-99.99,,,-99.99,,2013-04-21 05:22:00,
2013-04-20 23:32:00,41.0,33.0,-100.00,WSW,255,10.0,14.0,74,-99.99,,,-99.99,,2013-04-21 05:32:00,
2013-04-20 23:42:00,40.0,33.0,-100.00,West,265,9.0,11.0,76,-99.99,,,-99.99,,2013-04-21 05:42:00,
2013-04-20 23:52:00,40.0,33.0,-100.00,West,270,7.0,11.0,78,-99.99,,,-99.99,,2013-04-21 05:52:00,